Latest Weather Observations for Century Mine

IDQ60801

Issued at 11:32 am EST Wednesday 29 June 2016 (issued every 30 minutes, with the page automatically refreshed every 10 minutes)

About weather observations | Map of weather stations | Latest weather observations for QLD | Other Formats
Station Details ID: 029167 Name: CENTURY MINE Lat: -18.76 Lon: 138.71 Height: 126.8 m
Data from the previous 72 hours. | See also: Recent months at Century Mine
Date/Time
EST
Temp
°C
App
Temp
°C
Dew
Point
°C
Rel
Hum
%
Delta-T
°C
Wind Press
QNH
hPa
Press
MSL
hPa
Rain since
9am
mm
Dir  Spd
km/h
Gust
km/h
Spd
kts
Gust
kts
29/11:00am 22.1 18.5 2.8 28 9.2 E 11 17 6 9 1021.2 1020.8 0.0
29/10:30am 20.5 16.6 1.4 28 8.8 SE 11 17 6 9 1021.4 1021.0 0.0
29/10:00am 19.6 15.8 2.0 31 8.1 ESE 11 19 6 10 1021.4 1021.0 0.0
29/09:30am 17.6 13.3 0.7 32 7.5 ESE 13 19 7 10 1021.4 1021.0 0.0
29/09:00am 15.8 11.8 0.4 35 6.6 SE 11 19 6 10 1021.2 1020.8 0.0
29/08:30am 13.1 11.1 2.1 47 4.8 S 2 9 1 5 1021.1 1020.7 0.0
29/08:00am 8.4 6.0 2.0 64 2.7 SSW 4 7 2 4 1021.0 1020.6 0.0
29/07:30am 7.2 4.1 0.2 61 2.8 SSW 6 7 3 4 1020.9 1020.5 0.0
29/07:00am 8.3 5.1 -0.4 54 3.4 SSW 6 7 3 4 1020.9 1020.5 0.0
29/06:30am 9.8 6.1 0.2 51 3.9 SSE 9 11 5 6 1020.6 1020.2 0.0
29/06:00am 9.6 6.2 -0.3 50 3.9 S 7 11 4 6 1020.5 1020.1 0.0
29/05:30am 10.2 6.5 0.0 49 4.1 S 9 13 5 7 1020.5 1020.1 0.0
29/05:00am 10.8 7.4 -0.3 46 4.5 SSE 7 13 4 7 1020.6 1020.2 0.0
29/04:30am 11.3 7.7 0.4 47 4.5 SSE 9 15 5 8 1020.6 1020.2 0.0
29/04:00am 9.1 5.8 -1.0 49 3.9 ESE 6 7 3 4 1020.7 1020.3 0.0
29/03:30am 10.1 6.9 -0.7 47 4.3 SSE 6 7 3 4 1020.7 1020.3 0.0
29/03:00am 11.6 8.2 -0.5 43 4.9 SSE 7 11 4 6 1020.8 1020.4 0.0
29/02:30am 9.9 6.4 1.0 54 3.7 S 9 13 5 7 1021.0 1020.6 0.0
29/02:00am 8.0 4.5 1.0 61 2.8 S 9 11 5 6 1021.2 1020.8 0.0
29/01:30am 7.8 4.3 1.0 62 2.8 S 9 9 5 5 1021.4 1021.0 0.0
29/01:00am 8.1 5.1 0.8 60 2.9 S 6 7 3 4 1021.4 1021.0 0.0
29/12:30am 8.7 6.8 0.7 57 3.2 CALM 0 0 0 0 1021.4 1021.0 0.0
29/12:00am 10.0 8.1 0.3 51 3.9 CALM 0 0 0 0 1021.7 1021.3 0.0
 
Date/Time
EST
Temp
°C
App
Temp
°C
Dew
Point
°C
Rel
Hum
%
Delta-T
°C
Wind Press
QNH
hPa
Press
MSL
hPa
Rain since
9am
mm
Dir  Spd
km/h
Gust
km/h
Spd
kts
Gust
kts
28/11:30pm 11.3 8.1 -0.2 45 4.7 E 6 6 3 3 1021.9 1021.5 0.0
28/11:00pm 13.5 10.3 -0.5 38 5.8 E 6 7 3 4 1021.9 1021.5 0.0
28/10:30pm 15.9 11.9 0.5 35 6.7 SE 11 17 6 9 1021.9 1021.5 0.0
28/10:00pm 16.7 12.6 -0.1 32 7.2 SE 11 20 6 11 1021.9 1021.5 0.0
28/09:30pm 17.2 13.1 -0.1 31 7.5 SE 11 17 6 9 1021.6 1021.2 0.0
28/09:00pm 17.7 13.6 -0.1 30 7.7 SE 11 17 6 9 1021.4 1021.0 0.0
28/08:30pm 17.9 14.0 -1.3 27 8.2 SE 9 19 5 10 1021.2 1020.8 0.0
28/08:00pm 19.2 14.6 -1.3 25 8.8 SE 13 19 7 10 1020.7 1020.3 0.0
28/07:30pm 19.3 15.0 -1.7 24 9.0 SE 11 17 6 9 1020.4 1020.0 0.0
28/07:00pm 20.3 15.8 -0.3 25 9.1 SE 13 19 7 10 1019.8 1019.4 0.0
28/06:30pm 21.1 17.0 -0.2 24 9.5 SE 11 17 6 9 1019.4 1019.0 0.0
28/06:00pm 22.6 18.2 0.4 23 10.1 SE 13 17 7 9 1019.2 1018.8 0.0
28/05:30pm 23.8 19.5 0.8 22 10.7 SSE 13 17 7 9 1018.9 1018.5 0.0
28/05:00pm 24.6 20.4 1.5 22 10.9 SE 13 20 7 11 1018.7 1018.3 0.0
28/04:30pm 24.4 20.2 1.9 23 10.7 SSE 13 26 7 14 1018.7 1018.3 0.0
28/04:00pm 24.7 20.3 2.8 24 10.6 SE 15 22 8 12 1018.7 1018.3 0.0
28/03:30pm 24.8 20.8 2.9 24 10.7 SSE 13 24 7 13 1018.7 1018.3 0.0
28/03:00pm 24.4 20.6 3.7 26 10.2 SSE 13 22 7 12 1018.8 1018.4 0.0
28/02:30pm 24.3 20.5 4.1 27 10.0 SE 13 22 7 12 1019.0 1018.6 0.0
28/02:00pm 24.0 20.4 4.9 29 9.6 SSE 13 22 7 12 1019.4 1019.0 0.0
28/01:30pm 23.1 19.4 4.6 30 9.2 SE 13 24 7 13 1020.2 1019.8 0.0
28/01:00pm 22.6 18.5 4.6 31 8.9 SSE 15 22 8 12 1020.8 1020.4 0.0
28/12:30pm 21.3 18.0 4.4 33 8.3 SE 11 20 6 11 1021.2 1020.8 0.0
28/12:00pm 20.7 16.7 4.7 35 7.8 SE 15 22 8 12 1021.6 1021.2 0.0
28/11:30am 20.0 16.4 4.9 37 7.4 SSE 13 20 7 11 1022.0 1021.6 0.0
28/11:00am 18.9 14.9 5.0 40 6.7 SE 15 24 8 13 1022.5 1022.1 0.0
28/10:30am 18.0 14.1 5.2 43 6.2 SE 15 22 8 12 1022.6 1022.2 0.0
28/10:00am 17.3 13.8 5.3 45 5.8 SE 13 24 7 13 1022.6 1022.2 0.0
28/09:30am 16.0 11.7 5.3 49 5.1 SE 17 24 9 13 1022.6 1022.2 0.0
28/09:00am 15.1 10.4 5.3 52 4.6 SE 19 30 10 16 1022.3 1021.9 0.0
28/08:30am 14.6 11.2 5.9 56 4.2 SE 13 19 7 10 1022.1 1021.7 0.0
28/08:00am 13.5 10.9 6.1 61 3.5 SE 9 17 5 9 1021.8 1021.4 0.0
28/07:30am 12.6 10.0 6.2 65 3.0 SE 9 15 5 8 1021.4 1021.0 0.0
28/07:00am 12.2 9.6 6.3 67 2.8 SE 9 15 5 8 1021.3 1020.9 0.0
28/06:30am 11.1 8.9 5.4 68 2.6 SSE 6 7 3 4 1020.9 1020.5 0.0
28/06:00am 12.6 10.5 6.0 64 3.1 SE 6 9 3 5 1020.7 1020.3 0.0
28/05:30am 12.9 10.3 6.0 63 3.3 S 9 11 5 6 1020.5 1020.1 0.0
28/05:00am 13.5 10.9 6.1 61 3.5 SSE 9 11 5 6 1020.4 1020.0 0.0
28/04:30am 13.9 11.3 6.3 60 3.7 S 9 13 5 7 1020.4 1020.0 0.0
28/04:00am 14.4 11.8 6.3 58 3.9 SSE 9 13 5 7 1020.2 1019.8 0.0
28/03:30am 15.0 12.5 6.6 57 4.1 SSE 9 13 5 7 1020.2 1019.8 0.0
28/03:00am 15.3 12.8 6.6 56 4.3 SSE 9 13 5 7 1020.2 1019.8 0.0
28/02:30am 16.0 13.6 7.0 55 4.5 SSE 9 15 5 8 1020.4 1020.0 0.0
28/02:00am 16.6 13.8 7.0 53 4.8 SSE 11 15 6 8 1020.5 1020.1 0.0
28/01:30am 17.1 14.0 7.2 52 5.0 SSE 13 19 7 10 1020.5 1020.1 0.0
28/01:00am 17.9 14.4 7.3 50 5.3 SSE 15 22 8 12 1020.3 1019.9 0.0
28/12:30am 18.2 16.1 8.2 52 5.2 SSE 9 19 5 10 1020.2 1019.8 0.0
28/12:00am 18.8 16.5 9.0 53 5.1 SSE 11 17 6 9 1020.0 1019.6 0.0
 
Date/Time
EST
Temp
°C
App
Temp
°C
Dew
Point
°C
Rel
Hum
%
Delta-T
°C
Wind Press
QNH
hPa
Press
MSL
hPa
Rain since
9am
mm
Dir  Spd
km/h
Gust
km/h
Spd
kts
Gust
kts
27/11:30pm 19.5 17.2 9.1 51 5.5 SSE 11 20 6 11 1020.0 1019.6 0.0
27/11:00pm 19.8 17.1 9.1 50 5.7 SSE 13 24 7 13 1020.0 1019.6 0.0
27/10:30pm 19.5 17.7 9.4 52 5.4 SE 9 15 5 8 1020.0 1019.6 0.0
27/10:00pm 18.7 17.1 8.7 52 5.2 SE 7 9 4 5 1019.6 1019.2 0.0
27/09:30pm 20.4 18.8 8.7 47 6.2 SE 7 9 4 5 1019.4 1019.0 0.0
27/09:00pm 21.7 19.4 8.9 44 6.8 SE 11 17 6 9 1019.2 1018.8 0.0
27/08:30pm 22.0 20.1 8.9 43 7.0 SE 9 13 5 7 1018.9 1018.5 0.0
27/08:00pm 22.3 20.4 9.1 43 7.1 SE 9 11 5 6 1018.3 1017.9 0.0
27/07:30pm 22.7 21.0 9.8 44 7.0 ESE 9 15 5 8 1017.9 1017.5 0.0
27/07:00pm 22.8 21.2 8.9 41 7.5 SSW 7 9 4 5 1017.3 1016.9 0.0
27/06:30pm 24.2 22.2 8.6 37 8.4 S 9 15 5 8 1016.9 1016.5 0.0
27/06:00pm 25.4 23.3 8.4 34 9.2 S 9 15 5 8 1016.7 1016.3 0.0
27/05:30pm 26.4 24.3 8.4 32 9.8 S 9 17 5 9 1016.4 1016.0 0.0
27/05:00pm 26.9 24.2 8.8 32 9.9 SSE 13 17 7 9 1016.1 1015.7 0.0
27/04:30pm 27.2 24.8 8.6 31 10.2 SSE 11 19 6 10 1015.9 1015.5 0.0
27/04:00pm 27.3 24.7 9.2 32 10.0 S 13 20 7 11 1015.8 1015.4 0.0
27/03:30pm 26.8 23.6 8.3 31 10.1 S 15 20 8 11 1015.9 1015.5 0.0
27/03:00pm 26.9 24.2 8.8 32 9.9 S 13 24 7 13 1016.1 1015.7 0.0
27/02:30pm 26.8 24.4 8.7 32 9.9 S 11 19 6 10 1016.4 1016.0 0.0
27/02:00pm 26.0 23.6 8.5 33 9.5 S 11 24 6 13 1016.7 1016.3 0.0
27/01:30pm 25.4 22.9 8.0 33 9.3 SSE 11 17 6 9 1017.1 1016.7 0.0
27/01:00pm 25.5 22.7 8.5 34 9.2 SSE 13 24 7 13 1017.7 1017.3 0.0
27/12:30pm 24.5 21.5 7.6 34 9.0 S 13 20 7 11 1018.3 1017.9 0.0
27/12:00pm 24.2 20.7 7.4 34 8.8 SSE 15 24 8 13 1018.7 1018.3 0.0
27/11:30am 23.4 20.1 6.2 33 8.8 SSE 13 26 7 14 1019.1 1018.7 0.0
27/11:00am 22.9 19.6 6.2 34 8.5 S 13 26 7 14 1019.1 1018.7 0.0
27/10:30am 22.4 18.2 5.8 34 8.4 SSE 17 30 9 16 1019.2 1018.8 0.0
27/10:00am 21.6 17.5 6.3 37 7.8 S 17 30 9 16 1019.2 1018.8 0.0
27/09:30am 21.0 17.0 6.5 39 7.4 S 17 26 9 14 1019.0 1018.6 0.0
27/09:00am 20.4 16.2 5.6 38 7.4 S 17 24 9 13 1018.6 1018.2 0.0
27/08:30am 20.0 15.9 6.4 41 6.9 S 17 24 9 13 1018.0 1017.6 0.0
27/08:00am 19.3 15.7 6.8 44 6.3 S 15 22 8 12 1017.5 1017.1 0.0
27/07:30am 18.9 14.9 6.7 45 6.1 S 17 26 9 14 1016.9 1016.5 0.0
27/07:00am 19.3 15.8 7.1 45 6.2 S 15 26 8 14 1016.4 1016.0 0.0
27/06:30am 19.6 15.8 7.7 46 6.1 S 17 22 9 12 1015.9 1015.5 0.0
27/06:00am 19.9 16.4 8.6 48 5.9 S 17 26 9 14 1015.4 1015.0 0.0
27/05:30am 20.1 17.1 9.1 49 5.8 SSW 15 24 8 13 1015.0 1014.6 0.0
27/05:00am 20.1 17.3 9.9 52 5.5 S 15 22 8 12 1014.6 1014.2 0.0
27/04:30am 19.9 18.9 14.5 71 3.2 SSW 13 19 7 10 1014.3 1013.9 0.0
27/04:00am 16.9 16.4 13.8 82 1.8 SSW 9 11 5 6 1014.1 1013.7 0.0
27/03:30am 17.0 17.0 12.5 75 2.5 ENE 4 9 2 5 1013.9 1013.5 0.0
27/03:00am 17.7 17.8 12.6 72 2.9 NNE 4 9 2 5 1014.0 1013.6 0.0
27/02:30am 18.0 17.9 12.0 68 3.3 SW 4 9 2 5 1014.2 1013.8 0.0
27/02:00am 16.3 16.8 11.5 73 2.6 CALM 0 0 0 0 1014.0 1013.6 0.0
27/01:30am 16.8 17.3 11.5 71 2.9 CALM 0 0 0 0 1014.2 1013.8 0.0
27/01:00am 17.0 17.5 11.5 70 3.0 CALM 0 0 0 0 1014.3 1013.9 0.0
27/12:30am 17.3 17.3 11.3 68 3.3 WSW 2 7 1 4 1014.3 1013.9 0.0
27/12:00am 18.0 18.4 11.3 65 3.7 CALM 0 0 0 0 1014.3 1013.9 0.0
 
Date/Time
EST
Temp
°C
App
Temp
°C
Dew
Point
°C
Rel
Hum
%
Delta-T
°C
Wind Press
QNH
hPa
Press
MSL
hPa
Rain since
9am
mm
Dir  Spd
km/h
Gust
km/h
Spd
kts
Gust
kts
26/11:30pm 18.1 17.3 11.2 64 3.8 SSW 6 7 3 4 1014.1 1013.7 0.0
26/11:00pm 18.1 17.2 11.2 64 3.8 SSW 7 9 4 5 1013.9 1013.5 0.0
26/10:30pm 18.5 18.9 11.3 63 3.9 CALM 0 0 0 0 1013.7 1013.3 0.0
26/10:00pm 18.9 19.4 11.5 62 4.1 CALM 0 0 0 0 1013.8 1013.4 0.0
26/09:30pm 19.6 20.0 11.1 58 4.7 CALM 0 0 0 0 1013.5 1013.1 0.0
26/09:00pm 20.1 20.4 10.8 55 5.1 CALM 0 0 0 0 1013.3 1012.9 0.0
26/08:30pm 20.9 21.1 10.7 52 5.6 CALM 0 0 0 0 1013.1 1012.6 0.0
26/08:00pm 21.6 21.7 10.1 48 6.3 CALM 0 0 0 0 1012.9 1012.4 0.0
26/07:30pm 22.8 22.7 9.6 43 7.2 CALM 0 0 0 0 1012.7 1012.2 0.0
26/07:00pm 24.4 23.8 8.8 37 8.4 WNW 2 6 1 3 1012.5 1012.0 0.0
26/06:30pm 26.6 25.0 8.1 31 10.0 W 6 7 3 4 1012.3 1011.8 0.0
26/06:00pm 30.2 28.7 8.6 26 12.0 WNW 6 9 3 5 1012.0 1011.5 0.0
26/05:30pm 31.1 28.6 8.2 24 12.7 NW 11 17 6 9 1011.6 1011.2 0.0
26/05:00pm 31.7 29.2 8.0 23 13.2 NW 11 20 6 11 1011.4 1011.0 0.0
26/04:30pm 31.9 28.8 8.8 24 13.0 NNW 15 20 8 11 1011.2 1010.8 0.0
26/04:00pm 31.6 28.5 7.3 22 13.3 NW 13 19 7 10 1011.4 1011.0 0.0
26/03:30pm 31.6 28.8 8.6 24 12.9 NNW 13 26 7 14 1011.6 1011.2 0.0
26/03:00pm 31.8 28.5 8.1 23 13.2 NNW 15 22 8 12 1012.0 1011.5 0.0
26/02:30pm 31.5 29.1 8.5 24 12.8 NNW 11 17 6 9 1012.3 1011.8 0.0
26/02:00pm 31.0 28.5 8.1 24 12.7 NNW 11 19 6 10 1013.0 1012.5 0.0
26/01:30pm 30.6 28.2 7.1 23 12.8 N 9 19 5 10 1013.4 1013.0 0.0
26/01:00pm 29.7 27.0 5.7 22 12.7 N 9 15 5 8 1014.0 1013.6 0.0
26/12:30pm 29.7 27.2 6.4 23 12.5 N 9 17 5 9 1014.5 1014.1 0.0
26/12:00pm 28.2 25.8 5.1 23 12.0 N 7 13 4 7 1015.0 1014.6 0.0

Other Formats:

Comma delimited format used in spreadsheet applications
http://www.bom.gov.au/fwo/IDQ60801/IDQ60801.94261.axf

JavaScript Object Notation format (JSON) in row-major order
http://www.bom.gov.au/fwo/IDQ60801/IDQ60801.94261.json